sensor_id;sensor_type;location;lat;lon;timestamp;P1;durP1;ratioP1;P2;durP2;ratioP2
20541;SDS011;10429;50.956;9.786;2022-11-20T00:01:11;28.37;;;16.97;;
20541;SDS011;10429;50.956;9.786;2022-11-20T00:03:38;30.35;;;16.40;;
20541;SDS011;10429;50.956;9.786;2022-11-20T00:06:05;30.05;;;18.25;;
20541;SDS011;10429;50.956;9.786;2022-11-20T00:08:31;31.23;;;17.20;;
20541;SDS011;10429;50.956;9.786;2022-11-20T00:10:57;33.95;;;18.27;;
20541;SDS011;10429;50.956;9.786;2022-11-20T00:13:29;34.03;;;17.80;;
20541;SDS011;10429;50.956;9.786;2022-11-20T00:15:59;33.33;;;18.88;;
20541;SDS011;10429;50.956;9.786;2022-11-20T00:18:26;31.27;;;18.35;;
20541;SDS011;10429;50.956;9.786;2022-11-20T00:20:52;33.58;;;18.23;;
20541;SDS011;10429;50.956;9.786;2022-11-20T00:23:19;33.25;;;19.75;;
20541;SDS011;10429;50.956;9.786;2022-11-20T00:25:45;27.70;;;16.97;;
20541;SDS011;10429;50.956;9.786;2022-11-20T00:28:11;31.30;;;18.52;;
20541;SDS011;10429;50.956;9.786;2022-11-20T00:30:37;29.73;;;18.55;;
20541;SDS011;10429;50.956;9.786;2022-11-20T00:33:03;31.03;;;18.03;;
20541;SDS011;10429;50.956;9.786;2022-11-20T00:35:29;32.17;;;18.00;;
20541;SDS011;10429;50.956;9.786;2022-11-20T00:37:55;30.63;;;16.55;;
20541;SDS011;10429;50.956;9.786;2022-11-20T00:40:21;28.17;;;16.77;;
20541;SDS011;10429;50.956;9.786;2022-11-20T00:42:47;27.53;;;17.37;;
20541;SDS011;10429;50.956;9.786;2022-11-20T00:45:13;27.80;;;17.03;;
20541;SDS011;10429;50.956;9.786;2022-11-20T00:47:39;27.65;;;16.88;;
20541;SDS011;10429;50.956;9.786;2022-11-20T00:50:05;24.00;;;15.50;;
20541;SDS011;10429;50.956;9.786;2022-11-20T00:52:31;26.90;;;16.83;;
20541;SDS011;10429;50.956;9.786;2022-11-20T00:54:57;24.63;;;15.57;;
20541;SDS011;10429;50.956;9.786;2022-11-20T00:57:23;25.53;;;15.73;;
20541;SDS011;10429;50.956;9.786;2022-11-20T00:59:49;24.23;;;15.20;;
20541;SDS011;10429;50.956;9.786;2022-11-20T01:02:15;27.87;;;16.10;;
20541;SDS011;10429;50.956;9.786;2022-11-20T01:04:42;24.30;;;15.60;;
20541;SDS011;10429;50.956;9.786;2022-11-20T01:07:08;27.08;;;15.27;;
20541;SDS011;10429;50.956;9.786;2022-11-20T01:09:34;23.57;;;15.20;;
20541;SDS011;10429;50.956;9.786;2022-11-20T01:12:00;27.08;;;16.73;;
20541;SDS011;10429;50.956;9.786;2022-11-20T01:14:26;26.27;;;16.53;;
20541;SDS011;10429;50.956;9.786;2022-11-20T01:16:52;31.13;;;18.03;;
20541;SDS011;10429;50.956;9.786;2022-11-20T01:19:19;28.38;;;17.63;;
20541;SDS011;10429;50.956;9.786;2022-11-20T01:21:47;26.83;;;16.53;;
20541;SDS011;10429;50.956;9.786;2022-11-20T01:24:14;27.27;;;16.43;;
20541;SDS011;10429;50.956;9.786;2022-11-20T01:26:43;28.00;;;16.20;;
20541;SDS011;10429;50.956;9.786;2022-11-20T01:29:14;27.63;;;15.93;;
20541;SDS011;10429;50.956;9.786;2022-11-20T01:31:41;30.63;;;18.43;;
20541;SDS011;10429;50.956;9.786;2022-11-20T01:34:10;32.10;;;17.93;;
20541;SDS011;10429;50.956;9.786;2022-11-20T01:36:37;31.43;;;18.60;;
20541;SDS011;10429;50.956;9.786;2022-11-20T01:39:04;34.38;;;18.27;;
20541;SDS011;10429;50.956;9.786;2022-11-20T01:41:31;33.70;;;18.13;;
20541;SDS011;10429;50.956;9.786;2022-11-20T01:44:18;35.30;;;18.37;;
20541;SDS011;10429;50.956;9.786;2022-11-20T01:46:52;36.65;;;20.02;;
20541;SDS011;10429;50.956;9.786;2022-11-20T01:49:21;34.70;;;18.00;;
20541;SDS011;10429;50.956;9.786;2022-11-20T01:52:01;30.03;;;17.77;;
20541;SDS011;10429;50.956;9.786;2022-11-20T01:54:33;28.60;;;17.95;;
20541;SDS011;10429;50.956;9.786;2022-11-20T01:57:00;30.67;;;17.07;;
20541;SDS011;10429;50.956;9.786;2022-11-20T01:59:27;32.10;;;18.10;;
20541;SDS011;10429;50.956;9.786;2022-11-20T02:01:54;32.60;;;18.73;;
20541;SDS011;10429;50.956;9.786;2022-11-20T02:04:20;30.73;;;17.00;;
20541;SDS011;10429;50.956;9.786;2022-11-20T02:06:50;27.03;;;16.77;;
20541;SDS011;10429;50.956;9.786;2022-11-20T02:09:17;25.73;;;15.43;;
20541;SDS011;10429;50.956;9.786;2022-11-20T02:11:43;28.67;;;16.67;;
20541;SDS011;10429;50.956;9.786;2022-11-20T02:14:09;26.00;;;16.47;;
20541;SDS011;10429;50.956;9.786;2022-11-20T02:16:37;23.43;;;15.50;;
20541;SDS011;10429;50.956;9.786;2022-11-20T02:19:04;31.27;;;17.03;;
20541;SDS011;10429;50.956;9.786;2022-11-20T02:21:43;24.60;;;15.27;;
20541;SDS011;10429;50.956;9.786;2022-11-20T02:24:12;27.57;;;15.40;;
20541;SDS011;10429;50.956;9.786;2022-11-20T02:29:20;28.93;;;16.60;;
20541;SDS011;10429;50.956;9.786;2022-11-20T02:31:51;24.70;;;16.27;;
20541;SDS011;10429;50.956;9.786;2022-11-20T02:34:19;26.80;;;16.93;;
20541;SDS011;10429;50.956;9.786;2022-11-20T02:36:45;25.43;;;14.93;;
20541;SDS011;10429;50.956;9.786;2022-11-20T02:39:12;25.90;;;15.43;;
20541;SDS011;10429;50.956;9.786;2022-11-20T02:41:41;22.43;;;15.17;;
20541;SDS011;10429;50.956;9.786;2022-11-20T02:44:07;26.77;;;15.13;;
20541;SDS011;10429;50.956;9.786;2022-11-20T02:46:33;26.10;;;16.20;;
20541;SDS011;10429;50.956;9.786;2022-11-20T02:49:00;23.50;;;16.00;;
20541;SDS011;10429;50.956;9.786;2022-11-20T02:51:27;23.50;;;15.10;;
20541;SDS011;10429;50.956;9.786;2022-11-20T02:53:53;25.83;;;15.00;;
20541;SDS011;10429;50.956;9.786;2022-11-20T02:56:19;22.77;;;14.80;;
20541;SDS011;10429;50.956;9.786;2022-11-20T02:58:45;24.57;;;14.77;;
20541;SDS011;10429;50.956;9.786;2022-11-20T03:01:11;25.40;;;14.83;;
20541;SDS011;10429;50.956;9.786;2022-11-20T03:03:37;25.80;;;16.57;;
20541;SDS011;10429;50.956;9.786;2022-11-20T03:06:03;24.83;;;16.07;;
20541;SDS011;10429;50.956;9.786;2022-11-20T03:08:29;22.67;;;15.83;;
20541;SDS011;10429;50.956;9.786;2022-11-20T03:10:55;26.33;;;15.87;;
20541;SDS011;10429;50.956;9.786;2022-11-20T03:13:21;26.00;;;16.50;;
20541;SDS011;10429;50.956;9.786;2022-11-20T03:15:47;26.07;;;16.33;;
20541;SDS011;10429;50.956;9.786;2022-11-20T03:18:13;26.73;;;16.87;;
20541;SDS011;10429;50.956;9.786;2022-11-20T03:20:39;24.10;;;15.97;;
20541;SDS011;10429;50.956;9.786;2022-11-20T03:23:05;25.23;;;15.70;;
20541;SDS011;10429;50.956;9.786;2022-11-20T03:25:31;28.50;;;16.90;;
20541;SDS011;10429;50.956;9.786;2022-11-20T03:27:57;26.17;;;16.97;;
20541;SDS011;10429;50.956;9.786;2022-11-20T03:30:23;29.03;;;16.97;;
20541;SDS011;10429;50.956;9.786;2022-11-20T03:32:52;29.33;;;17.67;;
20541;SDS011;10429;50.956;9.786;2022-11-20T03:35:18;28.50;;;16.83;;
20541;SDS011;10429;50.956;9.786;2022-11-20T03:37:44;30.57;;;17.47;;
20541;SDS011;10429;50.956;9.786;2022-11-20T03:40:10;31.50;;;17.57;;
20541;SDS011;10429;50.956;9.786;2022-11-20T03:42:37;28.43;;;16.63;;
20541;SDS011;10429;50.956;9.786;2022-11-20T03:45:12;29.50;;;17.03;;
20541;SDS011;10429;50.956;9.786;2022-11-20T03:47:39;29.17;;;17.50;;
20541;SDS011;10429;50.956;9.786;2022-11-20T03:50:05;30.30;;;17.27;;
20541;SDS011;10429;50.956;9.786;2022-11-20T03:52:31;30.73;;;17.23;;
20541;SDS011;10429;50.956;9.786;2022-11-20T03:54:59;30.23;;;17.70;;
20541;SDS011;10429;50.956;9.786;2022-11-20T03:57:26;28.80;;;17.10;;
20541;SDS011;10429;50.956;9.786;2022-11-20T03:59:52;29.73;;;17.00;;
20541;SDS011;10429;50.956;9.786;2022-11-20T04:02:18;29.43;;;17.33;;
20541;SDS011;10429;50.956;9.786;2022-11-20T04:04:44;31.00;;;18.23;;
20541;SDS011;10429;50.956;9.786;2022-11-20T04:07:10;32.00;;;17.43;;
20541;SDS011;10429;50.956;9.786;2022-11-20T04:09:36;36.90;;;18.87;;
20541;SDS011;10429;50.956;9.786;2022-11-20T04:12:02;39.63;;;20.43;;
20541;SDS011;10429;50.956;9.786;2022-11-20T04:14:28;35.03;;;19.57;;
20541;SDS011;10429;50.956;9.786;2022-11-20T04:16:54;36.90;;;19.50;;
20541;SDS011;10429;50.956;9.786;2022-11-20T04:19:20;42.30;;;19.90;;
20541;SDS011;10429;50.956;9.786;2022-11-20T04:21:46;36.30;;;19.77;;
20541;SDS011;10429;50.956;9.786;2022-11-20T04:24:12;36.00;;;18.70;;
20541;SDS011;10429;50.956;9.786;2022-11-20T04:26:38;33.73;;;18.93;;
20541;SDS011;10429;50.956;9.786;2022-11-20T04:29:04;32.33;;;18.30;;
20541;SDS011;10429;50.956;9.786;2022-11-20T04:31:32;33.03;;;18.30;;
20541;SDS011;10429;50.956;9.786;2022-11-20T04:34:04;36.83;;;19.43;;
20541;SDS011;10429;50.956;9.786;2022-11-20T04:36:31;38.80;;;20.50;;
20541;SDS011;10429;50.956;9.786;2022-11-20T04:39:01;39.07;;;20.30;;
20541;SDS011;10429;50.956;9.786;2022-11-20T04:41:29;44.37;;;22.30;;
20541;SDS011;10429;50.956;9.786;2022-11-20T04:43:56;39.27;;;19.30;;
20541;SDS011;10429;50.956;9.786;2022-11-20T04:46:24;38.10;;;20.53;;
20541;SDS011;10429;50.956;9.786;2022-11-20T04:48:50;33.60;;;18.73;;
20541;SDS011;10429;50.956;9.786;2022-11-20T04:51:16;33.63;;;18.30;;
20541;SDS011;10429;50.956;9.786;2022-11-20T04:53:42;35.30;;;18.97;;
20541;SDS011;10429;50.956;9.786;2022-11-20T04:56:09;33.30;;;19.57;;
20541;SDS011;10429;50.956;9.786;2022-11-20T04:58:36;34.23;;;18.07;;
20541;SDS011;10429;50.956;9.786;2022-11-20T05:01:02;36.97;;;18.73;;
20541;SDS011;10429;50.956;9.786;2022-11-20T05:03:28;30.90;;;18.57;;
20541;SDS011;10429;50.956;9.786;2022-11-20T05:05:54;34.47;;;18.70;;
20541;SDS011;10429;50.956;9.786;2022-11-20T05:08:20;33.40;;;19.20;;
20541;SDS011;10429;50.956;9.786;2022-11-20T05:10:46;32.73;;;18.10;;
20541;SDS011;10429;50.956;9.786;2022-11-20T05:13:12;34.63;;;19.33;;
20541;SDS011;10429;50.956;9.786;2022-11-20T05:15:38;34.10;;;18.00;;
20541;SDS011;10429;50.956;9.786;2022-11-20T05:18:04;40.60;;;19.87;;
20541;SDS011;10429;50.956;9.786;2022-11-20T05:20:31;40.47;;;21.33;;
20541;SDS011;10429;50.956;9.786;2022-11-20T05:22:57;38.57;;;20.60;;
20541;SDS011;10429;50.956;9.786;2022-11-20T05:25:23;34.47;;;18.37;;
20541;SDS011;10429;50.956;9.786;2022-11-20T05:27:49;36.57;;;20.53;;
20541;SDS011;10429;50.956;9.786;2022-11-20T05:30:15;41.60;;;20.20;;
20541;SDS011;10429;50.956;9.786;2022-11-20T05:32:41;37.23;;;20.13;;
20541;SDS011;10429;50.956;9.786;2022-11-20T05:35:07;39.97;;;21.00;;
20541;SDS011;10429;50.956;9.786;2022-11-20T05:37:33;38.87;;;20.13;;
20541;SDS011;10429;50.956;9.786;2022-11-20T05:39:59;39.83;;;19.83;;
20541;SDS011;10429;50.956;9.786;2022-11-20T05:42:25;37.60;;;20.30;;
20541;SDS011;10429;50.956;9.786;2022-11-20T05:45:00;40.20;;;21.47;;
20541;SDS011;10429;50.956;9.786;2022-11-20T05:47:28;39.40;;;21.17;;
20541;SDS011;10429;50.956;9.786;2022-11-20T05:49:54;39.07;;;20.70;;
20541;SDS011;10429;50.956;9.786;2022-11-20T05:52:20;38.30;;;20.57;;
20541;SDS011;10429;50.956;9.786;2022-11-20T05:54:48;36.50;;;19.93;;
20541;SDS011;10429;50.956;9.786;2022-11-20T05:57:15;38.10;;;20.40;;
20541;SDS011;10429;50.956;9.786;2022-11-20T05:59:41;38.83;;;19.67;;
20541;SDS011;10429;50.956;9.786;2022-11-20T06:02:07;36.17;;;19.87;;
20541;SDS011;10429;50.956;9.786;2022-11-20T06:04:33;38.90;;;21.10;;
20541;SDS011;10429;50.956;9.786;2022-11-20T06:06:59;41.17;;;21.60;;
20541;SDS011;10429;50.956;9.786;2022-11-20T06:09:25;46.50;;;23.60;;
20541;SDS011;10429;50.956;9.786;2022-11-20T06:11:51;51.60;;;26.57;;
20541;SDS011;10429;50.956;9.786;2022-11-20T06:14:19;46.67;;;23.50;;
20541;SDS011;10429;50.956;9.786;2022-11-20T06:16:45;54.60;;;24.30;;
20541;SDS011;10429;50.956;9.786;2022-11-20T06:19:11;52.40;;;25.80;;
20541;SDS011;10429;50.956;9.786;2022-11-20T06:21:37;52.23;;;24.43;;
20541;SDS011;10429;50.956;9.786;2022-11-20T06:24:03;45.70;;;23.13;;
20541;SDS011;10429;50.956;9.786;2022-11-20T06:26:30;47.60;;;23.87;;
20541;SDS011;10429;50.956;9.786;2022-11-20T06:28:56;42.40;;;20.63;;
20541;SDS011;10429;50.956;9.786;2022-11-20T06:31:23;46.90;;;22.77;;
20541;SDS011;10429;50.956;9.786;2022-11-20T06:33:50;46.00;;;22.10;;
20541;SDS011;10429;50.956;9.786;2022-11-20T06:36:17;43.53;;;22.97;;
20541;SDS011;10429;50.956;9.786;2022-11-20T06:38:43;48.57;;;23.53;;
20541;SDS011;10429;50.956;9.786;2022-11-20T06:41:17;43.43;;;22.40;;
20541;SDS011;10429;50.956;9.786;2022-11-20T06:43:43;48.23;;;22.80;;
20541;SDS011;10429;50.956;9.786;2022-11-20T06:46:10;43.13;;;22.60;;
20541;SDS011;10429;50.956;9.786;2022-11-20T06:48:36;48.27;;;23.77;;
20541;SDS011;10429;50.956;9.786;2022-11-20T06:51:03;42.40;;;23.30;;
20541;SDS011;10429;50.956;9.786;2022-11-20T06:53:29;50.20;;;23.33;;
20541;SDS011;10429;50.956;9.786;2022-11-20T06:55:56;48.90;;;24.00;;
20541;SDS011;10429;50.956;9.786;2022-11-20T06:58:28;45.27;;;22.07;;
20541;SDS011;10429;50.956;9.786;2022-11-20T07:00:58;54.63;;;25.23;;
20541;SDS011;10429;50.956;9.786;2022-11-20T07:03:24;52.70;;;24.77;;
20541;SDS011;10429;50.956;9.786;2022-11-20T07:05:50;48.97;;;23.90;;
20541;SDS011;10429;50.956;9.786;2022-11-20T07:08:16;53.33;;;23.83;;
20541;SDS011;10429;50.956;9.786;2022-11-20T07:10:42;54.43;;;24.50;;
20541;SDS011;10429;50.956;9.786;2022-11-20T07:13:08;52.17;;;24.80;;
20541;SDS011;10429;50.956;9.786;2022-11-20T07:15:34;51.17;;;23.77;;
20541;SDS011;10429;50.956;9.786;2022-11-20T07:18:01;62.03;;;24.60;;
20541;SDS011;10429;50.956;9.786;2022-11-20T07:20:27;50.00;;;24.27;;
20541;SDS011;10429;50.956;9.786;2022-11-20T07:22:56;60.83;;;25.33;;
20541;SDS011;10429;50.956;9.786;2022-11-20T07:25:23;59.27;;;26.07;;
20541;SDS011;10429;50.956;9.786;2022-11-20T07:27:49;63.03;;;26.70;;
20541;SDS011;10429;50.956;9.786;2022-11-20T07:30:16;69.20;;;26.07;;
20541;SDS011;10429;50.956;9.786;2022-11-20T07:32:42;60.70;;;26.33;;
20541;SDS011;10429;50.956;9.786;2022-11-20T07:35:11;63.83;;;26.57;;
20541;SDS011;10429;50.956;9.786;2022-11-20T07:37:38;59.87;;;25.50;;
20541;SDS011;10429;50.956;9.786;2022-11-20T07:40:04;62.80;;;26.47;;
20541;SDS011;10429;50.956;9.786;2022-11-20T07:42:30;58.90;;;25.23;;
20541;SDS011;10429;50.956;9.786;2022-11-20T07:44:56;63.83;;;29.33;;
20541;SDS011;10429;50.956;9.786;2022-11-20T07:47:22;63.60;;;27.57;;
20541;SDS011;10429;50.956;9.786;2022-11-20T07:49:48;61.37;;;27.20;;
20541;SDS011;10429;50.956;9.786;2022-11-20T07:52:16;62.50;;;27.33;;
20541;SDS011;10429;50.956;9.786;2022-11-20T07:54:42;62.80;;;28.30;;
20541;SDS011;10429;50.956;9.786;2022-11-20T07:57:08;66.17;;;28.53;;
20541;SDS011;10429;50.956;9.786;2022-11-20T07:59:34;63.17;;;27.50;;
20541;SDS011;10429;50.956;9.786;2022-11-20T08:02:00;62.97;;;28.87;;
20541;SDS011;10429;50.956;9.786;2022-11-20T08:04:26;70.73;;;29.27;;
20541;SDS011;10429;50.956;9.786;2022-11-20T08:06:52;70.73;;;29.10;;
20541;SDS011;10429;50.956;9.786;2022-11-20T08:09:18;66.63;;;28.70;;
20541;SDS011;10429;50.956;9.786;2022-11-20T08:11:44;72.33;;;29.03;;
20541;SDS011;10429;50.956;9.786;2022-11-20T08:14:29;78.23;;;28.80;;
20541;SDS011;10429;50.956;9.786;2022-11-20T08:16:55;81.10;;;30.00;;
20541;SDS011;10429;50.956;9.786;2022-11-20T08:19:24;71.63;;;29.07;;
20541;SDS011;10429;50.956;9.786;2022-11-20T08:21:50;71.03;;;29.30;;
20541;SDS011;10429;50.956;9.786;2022-11-20T08:24:16;82.10;;;28.93;;
20541;SDS011;10429;50.956;9.786;2022-11-20T08:26:42;78.10;;;29.00;;
20541;SDS011;10429;50.956;9.786;2022-11-20T08:29:10;79.30;;;28.27;;
20541;SDS011;10429;50.956;9.786;2022-11-20T08:31:36;81.90;;;29.40;;
20541;SDS011;10429;50.956;9.786;2022-11-20T08:34:04;81.47;;;29.10;;
20541;SDS011;10429;50.956;9.786;2022-11-20T08:36:32;78.97;;;29.47;;
20541;SDS011;10429;50.956;9.786;2022-11-20T08:39:01;85.40;;;29.57;;
20541;SDS011;10429;50.956;9.786;2022-11-20T08:41:30;88.13;;;29.60;;
20541;SDS011;10429;50.956;9.786;2022-11-20T08:44:02;84.63;;;28.47;;
20541;SDS011;10429;50.956;9.786;2022-11-20T08:46:32;87.53;;;28.37;;
20541;SDS011;10429;50.956;9.786;2022-11-20T08:48:58;95.10;;;30.57;;
20541;SDS011;10429;50.956;9.786;2022-11-20T08:51:25;83.67;;;29.13;;
20541;SDS011;10429;50.956;9.786;2022-11-20T08:53:51;81.93;;;28.13;;
20541;SDS011;10429;50.956;9.786;2022-11-20T08:56:17;79.53;;;30.43;;
20541;SDS011;10429;50.956;9.786;2022-11-20T08:58:43;75.83;;;29.70;;
20541;SDS011;10429;50.956;9.786;2022-11-20T09:01:09;85.07;;;31.33;;
20541;SDS011;10429;50.956;9.786;2022-11-20T09:03:36;83.03;;;29.10;;
20541;SDS011;10429;50.956;9.786;2022-11-20T09:06:03;70.87;;;28.63;;
20541;SDS011;10429;50.956;9.786;2022-11-20T09:08:29;77.23;;;27.97;;
20541;SDS011;10429;50.956;9.786;2022-11-20T09:10:56;68.03;;;27.97;;
20541;SDS011;10429;50.956;9.786;2022-11-20T09:13:22;63.93;;;27.70;;
20541;SDS011;10429;50.956;9.786;2022-11-20T09:18:21;76.70;;;31.37;;
20541;SDS011;10429;50.956;9.786;2022-11-20T09:20:47;74.47;;;30.10;;
20541;SDS011;10429;50.956;9.786;2022-11-20T09:23:13;75.60;;;30.67;;
20541;SDS011;10429;50.956;9.786;2022-11-20T09:25:40;75.10;;;28.47;;
20541;SDS011;10429;50.956;9.786;2022-11-20T09:28:08;68.90;;;28.40;;
20541;SDS011;10429;50.956;9.786;2022-11-20T09:30:35;70.37;;;27.10;;
20541;SDS011;10429;50.956;9.786;2022-11-20T09:33:01;76.10;;;29.37;;
20541;SDS011;10429;50.956;9.786;2022-11-20T09:35:27;73.70;;;28.57;;
20541;SDS011;10429;50.956;9.786;2022-11-20T09:37:53;69.30;;;30.50;;
20541;SDS011;10429;50.956;9.786;2022-11-20T09:40:23;75.03;;;28.73;;
20541;SDS011;10429;50.956;9.786;2022-11-20T09:45:39;77.20;;;30.13;;
20541;SDS011;10429;50.956;9.786;2022-11-20T09:55:47;64.90;;;26.27;;
20541;SDS011;10429;50.956;9.786;2022-11-20T09:58:31;52.87;;;24.97;;
20541;SDS011;10429;50.956;9.786;2022-11-20T10:01:01;53.00;;;25.07;;
20541;SDS011;10429;50.956;9.786;2022-11-20T10:06:15;55.33;;;24.30;;
20541;SDS011;10429;50.956;9.786;2022-11-20T10:08:48;49.60;;;24.90;;
20541;SDS011;10429;50.956;9.786;2022-11-20T10:11:25;51.23;;;26.03;;
20541;SDS011;10429;50.956;9.786;2022-11-20T10:24:24;51.53;;;26.43;;
20541;SDS011;10429;50.956;9.786;2022-11-20T10:29:36;45.70;;;23.93;;
20541;SDS011;10429;50.956;9.786;2022-11-20T10:32:08;50.17;;;25.17;;
20541;SDS011;10429;50.956;9.786;2022-11-20T10:37:27;57.67;;;29.17;;
20541;SDS011;10429;50.956;9.786;2022-11-20T10:42:25;60.23;;;30.47;;
20541;SDS011;10429;50.956;9.786;2022-11-20T10:44:52;60.20;;;29.73;;
20541;SDS011;10429;50.956;9.786;2022-11-20T10:47:28;55.73;;;28.53;;
20541;SDS011;10429;50.956;9.786;2022-11-20T10:49:56;54.73;;;27.80;;
20541;SDS011;10429;50.956;9.786;2022-11-20T10:57:30;56.50;;;27.17;;
20541;SDS011;10429;50.956;9.786;2022-11-20T11:00:04;58.87;;;29.20;;
20541;SDS011;10429;50.956;9.786;2022-11-20T11:02:34;60.10;;;27.73;;
20541;SDS011;10429;50.956;9.786;2022-11-20T11:05:04;57.33;;;27.33;;
20541;SDS011;10429;50.956;9.786;2022-11-20T11:07:35;59.77;;;28.00;;
20541;SDS011;10429;50.956;9.786;2022-11-20T11:10:12;60.27;;;29.10;;
20541;SDS011;10429;50.956;9.786;2022-11-20T11:12:42;57.63;;;27.30;;
20541;SDS011;10429;50.956;9.786;2022-11-20T11:17:54;60.83;;;30.43;;
20541;SDS011;10429;50.956;9.786;2022-11-20T11:20:21;65.67;;;31.03;;
20541;SDS011;10429;50.956;9.786;2022-11-20T11:22:48;61.27;;;29.00;;
20541;SDS011;10429;50.956;9.786;2022-11-20T11:25:28;54.97;;;28.37;;
20541;SDS011;10429;50.956;9.786;2022-11-20T11:27:55;58.23;;;29.23;;
20541;SDS011;10429;50.956;9.786;2022-11-20T11:30:22;54.47;;;28.47;;
20541;SDS011;10429;50.956;9.786;2022-11-20T11:32:49;53.97;;;26.53;;
20541;SDS011;10429;50.956;9.786;2022-11-20T11:35:19;55.50;;;27.07;;
20541;SDS011;10429;50.956;9.786;2022-11-20T11:37:45;57.47;;;27.80;;
20541;SDS011;10429;50.956;9.786;2022-11-20T11:40:13;56.53;;;28.10;;
20541;SDS011;10429;50.956;9.786;2022-11-20T11:42:44;56.43;;;28.77;;
20541;SDS011;10429;50.956;9.786;2022-11-20T11:45:14;50.30;;;27.17;;
20541;SDS011;10429;50.956;9.786;2022-11-20T11:53:17;50.67;;;27.13;;
20541;SDS011;10429;50.956;9.786;2022-11-20T11:55:31;53.30;;;26.33;;
20541;SDS011;10429;50.956;9.786;2022-11-20T12:01:04;49.60;;;26.37;;
20541;SDS011;10429;50.956;9.786;2022-11-20T12:03:37;50.87;;;26.13;;
20541;SDS011;10429;50.956;9.786;2022-11-20T12:06:13;51.43;;;26.90;;
20541;SDS011;10429;50.956;9.786;2022-11-20T12:08:53;53.43;;;26.17;;
20541;SDS011;10429;50.956;9.786;2022-11-20T12:11:24;49.27;;;24.90;;
20541;SDS011;10429;50.956;9.786;2022-11-20T12:13:58;55.07;;;27.50;;
20541;SDS011;10429;50.956;9.786;2022-11-20T12:16:28;53.03;;;25.60;;
20541;SDS011;10429;50.956;9.786;2022-11-20T12:18:56;52.33;;;26.53;;
20541;SDS011;10429;50.956;9.786;2022-11-20T12:31:35;56.90;;;26.83;;
20541;SDS011;10429;50.956;9.786;2022-11-20T12:34:08;50.40;;;27.90;;
20541;SDS011;10429;50.956;9.786;2022-11-20T12:37:01;53.70;;;28.07;;
20541;SDS011;10429;50.956;9.786;2022-11-20T12:39:38;51.67;;;26.33;;
20541;SDS011;10429;50.956;9.786;2022-11-20T12:45:54;54.00;;;29.27;;
20541;SDS011;10429;50.956;9.786;2022-11-20T12:52:48;58.83;;;29.80;;
20541;SDS011;10429;50.956;9.786;2022-11-20T12:57:57;56.50;;;29.00;;
20541;SDS011;10429;50.956;9.786;2022-11-20T13:00:24;55.70;;;27.67;;
20541;SDS011;10429;50.956;9.786;2022-11-20T13:08:24;55.63;;;29.30;;
20541;SDS011;10429;50.956;9.786;2022-11-20T13:11:14;53.37;;;27.30;;
20541;SDS011;10429;50.956;9.786;2022-11-20T13:19:11;56.93;;;28.87;;
20541;SDS011;10429;50.956;9.786;2022-11-20T13:21:38;54.23;;;28.37;;
20541;SDS011;10429;50.956;9.786;2022-11-20T13:24:27;61.43;;;30.93;;
20541;SDS011;10429;50.956;9.786;2022-11-20T13:29:36;53.67;;;26.97;;
20541;SDS011;10429;50.956;9.786;2022-11-20T13:32:06;50.87;;;27.50;;
20541;SDS011;10429;50.956;9.786;2022-11-20T13:34:37;53.87;;;27.87;;
20541;SDS011;10429;50.956;9.786;2022-11-20T13:37:03;56.63;;;28.27;;
20541;SDS011;10429;50.956;9.786;2022-11-20T13:39:31;55.00;;;26.47;;
20541;SDS011;10429;50.956;9.786;2022-11-20T13:42:01;53.40;;;26.93;;
20541;SDS011;10429;50.956;9.786;2022-11-20T13:44:47;49.60;;;25.70;;
20541;SDS011;10429;50.956;9.786;2022-11-20T13:47:23;50.57;;;27.17;;
20541;SDS011;10429;50.956;9.786;2022-11-20T13:49:49;49.67;;;26.13;;
20541;SDS011;10429;50.956;9.786;2022-11-20T14:02:35;54.97;;;27.57;;
20541;SDS011;10429;50.956;9.786;2022-11-20T14:05:01;55.27;;;27.87;;
20541;SDS011;10429;50.956;9.786;2022-11-20T14:07:32;55.13;;;29.13;;
20541;SDS011;10429;50.956;9.786;2022-11-20T14:10:01;56.80;;;27.07;;
20541;SDS011;10429;50.956;9.786;2022-11-20T14:12:31;53.50;;;28.23;;
20541;SDS011;10429;50.956;9.786;2022-11-20T14:14:57;54.93;;;27.73;;
20541;SDS011;10429;50.956;9.786;2022-11-20T14:19:51;57.37;;;29.90;;
20541;SDS011;10429;50.956;9.786;2022-11-20T14:22:21;59.30;;;30.07;;
20541;SDS011;10429;50.956;9.786;2022-11-20T14:24:48;61.33;;;31.20;;
20541;SDS011;10429;50.956;9.786;2022-11-20T14:27:20;56.27;;;28.10;;
20541;SDS011;10429;50.956;9.786;2022-11-20T14:29:47;57.10;;;29.47;;
20541;SDS011;10429;50.956;9.786;2022-11-20T14:32:18;61.80;;;30.73;;
20541;SDS011;10429;50.956;9.786;2022-11-20T14:34:45;59.00;;;29.33;;
20541;SDS011;10429;50.956;9.786;2022-11-20T14:37:12;63.87;;;30.37;;
20541;SDS011;10429;50.956;9.786;2022-11-20T14:39:42;61.03;;;29.97;;
20541;SDS011;10429;50.956;9.786;2022-11-20T14:42:24;61.17;;;29.40;;
20541;SDS011;10429;50.956;9.786;2022-11-20T14:44:52;54.00;;;27.60;;
20541;SDS011;10429;50.956;9.786;2022-11-20T14:47:24;52.23;;;28.90;;
20541;SDS011;10429;50.956;9.786;2022-11-20T14:49:51;61.23;;;29.43;;
20541;SDS011;10429;50.956;9.786;2022-11-20T14:52:19;52.57;;;28.63;;
20541;SDS011;10429;50.956;9.786;2022-11-20T14:59:49;58.53;;;29.03;;
20541;SDS011;10429;50.956;9.786;2022-11-20T15:02:15;57.67;;;29.30;;
20541;SDS011;10429;50.956;9.786;2022-11-20T15:04:48;62.23;;;29.90;;
20541;SDS011;10429;50.956;9.786;2022-11-20T15:07:27;58.53;;;28.60;;
20541;SDS011;10429;50.956;9.786;2022-11-20T15:12:25;63.10;;;29.73;;
20541;SDS011;10429;50.956;9.786;2022-11-20T15:14:52;60.07;;;30.03;;
20541;SDS011;10429;50.956;9.786;2022-11-20T15:17:18;62.47;;;30.37;;
20541;SDS011;10429;50.956;9.786;2022-11-20T15:19:44;60.57;;;29.77;;
20541;SDS011;10429;50.956;9.786;2022-11-20T15:22:11;58.03;;;28.63;;
20541;SDS011;10429;50.956;9.786;2022-11-20T15:24:44;59.33;;;27.77;;
20541;SDS011;10429;50.956;9.786;2022-11-20T15:27:10;59.10;;;27.60;;
20541;SDS011;10429;50.956;9.786;2022-11-20T15:29:37;58.87;;;28.17;;
20541;SDS011;10429;50.956;9.786;2022-11-20T15:32:03;63.90;;;29.60;;
20541;SDS011;10429;50.956;9.786;2022-11-20T15:34:29;62.37;;;30.90;;
20541;SDS011;10429;50.956;9.786;2022-11-20T15:36:55;65.53;;;30.93;;
20541;SDS011;10429;50.956;9.786;2022-11-20T15:39:21;65.60;;;34.13;;
20541;SDS011;10429;50.956;9.786;2022-11-20T15:41:47;67.00;;;32.37;;
20541;SDS011;10429;50.956;9.786;2022-11-20T15:44:13;62.83;;;31.20;;
20541;SDS011;10429;50.956;9.786;2022-11-20T15:46:40;69.07;;;31.60;;
20541;SDS011;10429;50.956;9.786;2022-11-20T15:49:14;66.83;;;32.10;;
20541;SDS011;10429;50.956;9.786;2022-11-20T15:51:44;62.03;;;29.40;;
20541;SDS011;10429;50.956;9.786;2022-11-20T15:56:37;66.70;;;30.80;;
20541;SDS011;10429;50.956;9.786;2022-11-20T15:59:03;61.97;;;29.33;;
20541;SDS011;10429;50.956;9.786;2022-11-20T16:01:29;63.43;;;30.53;;
20541;SDS011;10429;50.956;9.786;2022-11-20T16:03:56;62.77;;;30.87;;
20541;SDS011;10429;50.956;9.786;2022-11-20T16:06:22;64.37;;;31.17;;
20541;SDS011;10429;50.956;9.786;2022-11-20T16:08:48;67.63;;;31.57;;
20541;SDS011;10429;50.956;9.786;2022-11-20T16:11:15;64.67;;;33.33;;
20541;SDS011;10429;50.956;9.786;2022-11-20T16:13:41;63.47;;;31.40;;
20541;SDS011;10429;50.956;9.786;2022-11-20T16:16:27;69.33;;;34.47;;